Time;durP1;ratioP1;P1;durP2;ratioP2;P2;SDS_P1;SDS_P2;PMS_P1;PMS_P2;Temp;Humidity;BMP_temperature;BMP_pressure;BME280_temperature;BME280_humidity;BME280_pressure;Samples;Min_cycle;Max_cycle;Signal;HPM_P1;HPM_P2
2022/11/29 00:01:08;;;;;;;15.75;10.18;;;4.80;99.90;;;;;;4995044;28;20376;-31
2022/11/29 00:03:34;;;;;;;12.73;9.63;;;4.80;99.90;;;;;;4998153;28;20034;-30
2022/11/29 00:06:08;;;;;;;12.88;8.52;;;4.90;99.90;;;;;;5003689;28;20065;-31
2022/11/29 00:08:35;;;;;;;13.20;8.60;;;4.90;99.90;;;;;;5001622;28;20064;-30
2022/11/29 00:11:12;;;;;;;18.42;9.90;;;5.00;99.90;;;;;;5006216;28;20040;-31
2022/11/29 00:13:38;;;;;;;13.18;9.25;;;5.00;99.90;;;;;;4988569;28;20038;-35
2022/11/29 00:16:06;;;;;;;13.27;9.30;;;4.90;99.90;;;;;;4986708;28;20045;-33
2022/11/29 00:18:32;;;;;;;15.10;9.68;;;4.90;99.90;;;;;;4984577;28;20402;-33
2022/11/29 00:20:58;;;;;;;15.45;8.98;;;4.90;99.90;;;;;;4985584;28;20037;-31
2022/11/29 00:23:24;;;;;;;15.52;9.27;;;5.00;99.90;;;;;;4986477;28;20033;-36
2022/11/29 00:25:50;;;;;;;13.65;8.98;;;5.00;99.90;;;;;;4985573;28;20022;-35
2022/11/29 00:28:15;;;;;;;13.48;9.35;;;5.00;99.90;;;;;;4986565;28;20025;-34
2022/11/29 00:30:41;;;;;;;13.32;8.95;;;5.00;99.90;;;;;;4986094;28;20065;-29
2022/11/29 00:33:07;;;;;;;12.60;8.98;;;5.00;99.90;;;;;;4990208;28;20050;-35
2022/11/29 00:35:32;;;;;;;14.63;8.77;;;5.00;99.90;;;;;;4987214;28;20033;-30
2022/11/29 00:37:58;;;;;;;11.98;7.97;;;5.00;99.90;;;;;;4986498;28;20034;-31
2022/11/29 00:40:23;;;;;;;15.57;8.43;;;5.00;99.90;;;;;;4989474;28;20975;-35
2022/11/29 00:42:49;;;;;;;13.23;8.13;;;5.00;99.90;;;;;;4987989;28;20454;-30
2022/11/29 00:45:15;;;;;;;13.85;8.52;;;5.00;99.90;;;;;;5004987;28;20487;-33
2022/11/29 00:47:40;;;;;;;12.18;8.43;;;5.00;99.90;;;;;;4988177;28;20042;-34
2022/11/29 00:50:06;;;;;;;11.63;8.00;;;5.00;99.90;;;;;;4992902;28;20121;-32
2022/11/29 00:52:32;;;;;;;13.35;8.90;;;5.00;99.90;;;;;;4987431;28;20499;-36
2022/11/29 00:54:57;;;;;;;13.73;8.80;;;5.10;99.90;;;;;;5002941;28;20533;-33
2022/11/29 00:57:23;;;;;;;15.75;8.13;;;5.10;99.90;;;;;;4990200;28;20064;-30
2022/11/29 00:59:49;;;;;;;13.65;8.55;;;5.00;99.90;;;;;;4992518;28;20566;-33
2022/11/29 01:02:14;;;;;;;12.65;8.95;;;5.00;99.90;;;;;;4986791;28;20041;-33
2022/11/29 01:04:40;;;;;;;12.18;8.77;;;5.00;99.90;;;;;;4990051;28;20160;-33
2022/11/29 01:07:06;;;;;;;14.02;8.57;;;5.00;99.90;;;;;;4989034;28;20052;-34
2022/11/29 01:09:31;;;;;;;13.70;8.93;;;5.00;99.90;;;;;;4987395;28;20045;-34
2022/11/29 01:11:57;;;;;;;14.27;8.95;;;5.00;99.90;;;;;;4989800;28;20514;-34
2022/11/29 01:14:22;;;;;;;13.70;9.43;;;5.00;99.90;;;;;;4985847;28;20026;-36
2022/11/29 01:16:48;;;;;;;13.05;8.93;;;5.10;99.90;;;;;;4989728;28;20034;-32
2022/11/29 01:19:14;;;;;;;15.05;9.18;;;5.10;99.90;;;;;;4989401;28;20034;-33
2022/11/29 01:21:40;;;;;;;15.82;9.20;;;5.10;99.90;;;;;;4989181;28;20128;-29
2022/11/29 01:24:05;;;;;;;11.73;8.35;;;5.10;99.90;;;;;;4988367;28;20030;-34
2022/11/29 01:26:32;;;;;;;11.23;7.90;;;5.00;99.90;;;;;;4990040;28;20093;-34
2022/11/29 01:28:58;;;;;;;14.98;9.00;;;5.10;99.90;;;;;;4987686;28;20037;-32
2022/11/29 01:31:35;;;;;;;10.15;7.38;;;5.10;99.90;;;;;;4982598;28;20568;-33
2022/11/29 01:34:02;;;;;;;9.15;7.85;;;5.10;99.90;;;;;;4995288;28;20111;-33
2022/11/29 01:36:28;;;;;;;13.57;9.07;;;5.10;99.90;;;;;;4988734;28;20233;-30
2022/11/29 01:38:54;;;;;;;12.50;8.60;;;5.10;99.90;;;;;;4989155;28;20211;-36
2022/11/29 01:41:26;;;;;;;12.23;9.05;;;5.10;99.90;;;;;;4989736;28;20029;-36
2022/11/29 01:44:03;;;;;;;9.85;7.60;;;5.10;99.90;;;;;;4988765;28;20042;-32
2022/11/29 01:46:34;;;;;;;13.05;8.05;;;5.20;99.90;;;;;;4987992;28;20038;-33
2022/11/29 01:49:06;;;;;;;14.27;8.18;;;5.10;99.90;;;;;;4992724;28;21990;-34
2022/11/29 01:51:36;;;;;;;11.95;7.78;;;5.20;99.90;;;;;;4987795;28;20120;-30
2022/11/29 01:54:02;;;;;;;12.85;8.70;;;5.10;99.90;;;;;;4988175;28;20037;-33
2022/11/29 01:56:31;;;;;;;12.88;8.27;;;5.10;99.90;;;;;;4987238;28;20046;-34
2022/11/29 01:58:58;;;;;;;11.63;8.07;;;5.10;99.90;;;;;;4985597;28;20049;-36
2022/11/29 02:01:25;;;;;;;13.65;9.48;;;5.10;99.90;;;;;;4988921;28;20069;-35
2022/11/29 02:03:50;;;;;;;11.27;7.72;;;5.10;99.90;;;;;;5004415;28;20398;-33
2022/11/29 02:06:17;;;;;;;13.40;9.40;;;5.10;99.90;;;;;;4988333;28;20050;-31
2022/11/29 02:08:43;;;;;;;11.23;9.05;;;5.10;99.90;;;;;;4989819;28;20061;-35
2022/11/29 02:11:17;;;;;;;13.82;8.15;;;5.10;99.90;;;;;;4986471;28;21954;-31
2022/11/29 02:14:04;;;;;;;13.10;8.93;;;5.10;99.90;;;;;;4989124;28;20058;-31
2022/11/29 02:16:39;;;;;;;12.15;8.85;;;5.10;99.90;;;;;;4987120;28;20038;-34
2022/11/29 02:19:26;;;;;;;12.40;8.88;;;5.10;99.90;;;;;;4988323;28;20053;-31
2022/11/29 02:21:58;;;;;;;13.43;9.20;;;5.10;99.90;;;;;;5003332;28;20611;-33
2022/11/29 02:24:45;;;;;;;13.35;8.18;;;5.20;99.90;;;;;;5005041;28;20038;-31
2022/11/29 02:27:35;;;;;;;15.93;9.87;;;5.20;99.90;;;;;;4989358;28;20088;-32
2022/11/29 02:30:07;;;;;;;17.00;9.35;;;5.10;99.90;;;;;;4987323;28;20982;-36
2022/11/29 02:32:48;;;;;;;16.42;8.55;;;5.10;99.90;;;;;;4986322;28;20038;-35
2022/11/29 02:35:54;;;;;;;12.73;8.77;;;5.10;99.90;;;;;;4989458;28;20406;-32
2022/11/29 02:38:26;;;;;;;12.02;8.07;;;5.20;99.90;;;;;;4989113;28;21534;-31
2022/11/29 02:41:11;;;;;;;11.38;7.45;;;5.20;99.90;;;;;;4991870;28;20045;-33
2022/11/29 02:43:49;;;;;;;12.13;8.55;;;5.20;99.90;;;;;;4990454;28;20403;-33
2022/11/29 02:46:20;;;;;;;15.07;9.43;;;5.20;99.90;;;;;;4991704;28;20034;-30
2022/11/29 02:48:46;;;;;;;11.32;8.13;;;5.20;99.90;;;;;;4988178;28;20057;-30
2022/11/29 02:51:58;;;;;;;13.60;7.45;;;5.30;99.90;;;;;;4988044;28;20036;-30
2022/11/29 02:54:27;;;;;;;13.90;7.88;;;5.30;99.90;;;;;;4949899;28;20038;-32
2022/11/29 02:57:37;;;;;;;10.65;8.05;;;5.30;99.90;;;;;;4965210;28;20053;-31
2022/11/29 03:00:20;;;;;;;13.90;7.65;;;5.20;99.90;;;;;;4968584;28;20058;-33
2022/11/29 03:03:32;;;;;;;13.82;8.57;;;5.20;99.90;;;;;;4989295;28;20030;-33
2022/11/29 03:06:29;;;;;;;12.48;8.18;;;5.20;99.90;;;;;;4944950;28;20051;-34
2022/11/29 03:09:15;;;;;;;13.07;7.85;;;5.20;99.90;;;;;;4946533;28;20041;-35
2022/11/29 03:12:13;;;;;;;11.20;7.72;;;5.30;99.90;;;;;;4980202;28;20050;-30
2022/11/29 03:15:10;;;;;;;11.10;8.20;;;5.40;99.90;;;;;;4988645;28;20094;-32
2022/11/29 03:17:54;;;;;;;11.50;7.75;;;5.40;99.90;;;;;;4987753;28;20403;-30
2022/11/29 03:20:20;;;;;;;11.32;7.93;;;5.40;99.90;;;;;;4989400;28;20037;-33
2022/11/29 03:23:06;;;;;;;12.18;8.55;;;5.40;99.90;;;;;;4990962;28;20454;-33
2022/11/29 03:25:53;;;;;;;13.20;7.80;;;5.40;99.90;;;;;;4988936;28;20034;-31
2022/11/29 03:28:37;;;;;;;10.00;7.20;;;5.50;99.90;;;;;;4987629;28;20026;-32
2022/11/29 03:31:37;;;;;;;13.82;8.80;;;5.50;99.90;;;;;;4990099;28;20033;-32
2022/11/29 03:34:23;;;;;;;11.63;8.60;;;5.50;99.90;;;;;;4966603;28;20041;-33
2022/11/29 03:37:08;;;;;;;11.27;7.13;;;5.40;99.90;;;;;;4989484;28;20038;-33
2022/11/29 03:39:50;;;;;;;14.48;9.38;;;5.50;99.90;;;;;;4989666;28;20376;-32
2022/11/29 03:42:29;;;;;;;10.52;7.80;;;5.50;99.90;;;;;;4988062;28;20117;-33
2022/11/29 03:45:20;;;;;;;13.68;9.18;;;5.50;99.90;;;;;;4989381;28;20026;-30
2022/11/29 03:48:13;;;;;;;12.00;8.10;;;5.50;99.90;;;;;;4986447;28;20042;-33
2022/11/29 03:50:53;;;;;;;12.93;8.60;;;5.50;99.90;;;;;;4986863;28;20037;-33
2022/11/29 03:53:38;;;;;;;12.05;7.63;;;5.50;99.90;;;;;;4987488;28;21208;-33
2022/11/29 03:56:21;;;;;;;11.65;8.80;;;5.50;99.90;;;;;;4987652;28;20415;-33
2022/11/29 03:59:20;;;;;;;12.25;8.40;;;5.40;99.90;;;;;;4988056;28;20088;-31
2022/11/29 04:02:02;;;;;;;10.57;7.68;;;5.30;99.90;;;;;;4987312;28;20418;-34
2022/11/29 04:04:34;;;;;;;11.18;8.23;;;5.40;99.90;;;;;;4986111;28;20034;-33
2022/11/29 04:07:18;;;;;;;11.75;7.75;;;5.40;99.90;;;;;;5006690;28;20108;-34
2022/11/29 04:10:18;;;;;;;14.15;8.63;;;5.40;99.90;;;;;;4987190;28;21195;-30
2022/11/29 04:13:21;;;;;;;13.85;8.95;;;5.40;99.90;;;;;;4989102;28;20036;-32
2022/11/29 04:16:25;;;;;;;14.45;7.88;;;5.40;99.90;;;;;;4988375;28;20030;-36
2022/11/29 04:18:54;;;;;;;11.60;7.93;;;5.40;99.90;;;;;;4974453;28;21890;-32
2022/11/29 04:21:19;;;;;;;;;;;5.50;99.90;;;;;;4991284;28;20116;-32
2022/11/29 04:24:00;;;;;;;10.38;7.50;;;5.40;99.90;;;;;;4991447;28;19917;-36
2022/11/29 04:26:45;;;;;;;13.70;7.70;;;5.50;99.90;;;;;;4991277;28;20109;-30
2022/11/29 04:29:47;;;;;;;14.52;8.05;;;5.60;99.90;;;;;;4989069;28;20737;-35
2022/11/29 04:32:27;;;;;;;13.80;8.60;;;5.50;99.90;;;;;;4991325;28;20478;-32
2022/11/29 04:35:27;;;;;;;12.88;7.80;;;5.50;99.90;;;;;;4991433;28;20817;-37
2022/11/29 04:37:55;;;;;;;11.27;8.32;;;5.60;99.90;;;;;;4989351;28;20026;-31
2022/11/29 04:40:49;;;;;;;11.65;7.82;;;5.50;99.90;;;;;;4992416;28;20396;-34
2022/11/29 04:43:33;;;;;;;14.05;7.70;;;5.60;99.90;;;;;;4988851;28;20022;-33
2022/11/29 04:46:06;;;;;;;14.85;8.45;;;5.60;99.90;;;;;;4991122;28;20029;-33
2022/11/29 04:48:45;;;;;;;11.82;7.68;;;5.60;99.90;;;;;;4991111;28;20120;-32
2022/11/29 04:51:27;;;;;;;13.50;8.75;;;5.60;99.90;;;;;;4990199;28;20402;-30
2022/11/29 04:54:07;;;;;;;15.48;8.45;;;5.50;99.90;;;;;;4989163;28;20171;-33
2022/11/29 04:56:40;;;;;;;11.10;8.10;;;5.50;99.90;;;;;;4990228;28;21161;-30
2022/11/29 04:59:22;;;;;;;11.00;8.95;;;5.50;99.90;;;;;;4988769;28;20172;-35
2022/11/29 05:02:03;;;;;;;13.93;8.27;;;5.50;99.90;;;;;;4989570;28;20041;-33
2022/11/29 05:04:47;;;;;;;13.13;8.10;;;5.60;99.90;;;;;;4988166;28;20045;-33
2022/11/29 05:07:37;;;;;;;11.23;7.80;;;5.60;99.90;;;;;;4990849;28;20049;-31
2022/11/29 05:10:21;;;;;;;9.18;7.90;;;5.60;99.90;;;;;;4989011;28;20125;-32
2022/11/29 05:12:56;;;;;;;12.50;9.00;;;5.70;99.90;;;;;;4989740;28;20269;-31
2022/11/29 05:15:31;;;;;;;12.50;8.52;;;5.70;99.90;;;;;;4989474;28;20546;-30
2022/11/29 05:18:22;;;;;;;12.18;8.32;;;5.70;99.90;;;;;;4989210;28;20034;-31
2022/11/29 05:21:02;;;;;;;12.13;8.20;;;5.70;99.90;;;;;;4990078;28;20026;-35
2022/11/29 05:23:53;;;;;;;14.95;8.35;;;5.80;99.90;;;;;;4990032;28;20333;-32
2022/11/29 05:26:30;;;;;;;15.05;8.00;;;5.80;99.90;;;;;;4989076;28;20697;-31
2022/11/29 05:29:20;;;;;;;13.32;8.98;;;5.80;99.90;;;;;;4989603;28;20667;-33
2022/11/29 05:32:03;;;;;;;15.40;7.90;;;5.80;99.90;;;;;;4990412;28;20548;-36
2022/11/29 05:34:50;;;;;;;9.73;7.43;;;5.80;99.90;;;;;;4992604;28;20033;-29
2022/11/29 05:37:50;;;;;;;12.70;8.35;;;5.80;99.90;;;;;;4990217;28;20044;-31
2022/11/29 05:41:10;;;;;;;12.45;7.25;;;5.80;99.90;;;;;;5006628;28;20034;-30
2022/11/29 05:44:01;;;;;;;11.85;7.10;;;5.80;99.90;;;;;;4983682;28;20411;-30
2022/11/29 05:46:33;;;;;;;12.38;8.02;;;5.80;99.90;;;;;;5001309;28;20120;-31
2022/11/29 05:49:11;;;;;;;10.75;7.93;;;5.70;99.90;;;;;;5006479;28;20026;-31
2022/11/29 05:51:57;;;;;;;13.70;7.95;;;5.70;99.90;;;;;;5021964;28;20037;-34
2022/11/29 05:54:31;;;;;;;12.65;7.75;;;5.60;99.90;;;;;;5004862;28;20061;-32
2022/11/29 05:57:16;;;;;;;18.23;8.10;;;5.60;99.90;;;;;;5006637;28;20061;-36
2022/11/29 05:59:45;;;;;;;10.75;7.03;;;5.70;99.90;;;;;;5005760;28;20314;-30
2022/11/29 06:02:41;;;;;;;10.90;7.60;;;5.70;99.90;;;;;;5006918;28;20152;-31
2022/11/29 06:05:44;;;;;;;10.65;7.63;;;5.70;99.90;;;;;;5003201;28;20418;-33
2022/11/29 06:08:15;;;;;;;9.77;7.43;;;5.70;99.90;;;;;;5004296;28;20045;-29
2022/11/29 06:11:05;;;;;;;10.15;7.55;;;5.80;99.90;;;;;;5002221;28;20037;-30
2022/11/29 06:13:49;;;;;;;11.18;6.97;;;5.80;99.90;;;;;;5014247;28;20026;-31
2022/11/29 06:16:46;;;;;;;10.50;7.10;;;5.80;99.90;;;;;;5002653;28;20076;-30
2022/11/29 06:19:36;;;;;;;10.05;7.28;;;5.80;99.90;;;;;;5006739;28;20731;-30
2022/11/29 06:22:42;;;;;;;11.63;7.40;;;5.80;99.90;;;;;;5009595;28;20080;-30
2022/11/29 06:25:17;;;;;;;12.15;7.40;;;5.80;99.90;;;;;;5006507;28;20040;-32
2022/11/29 06:27:51;;;;;;;12.13;8.18;;;5.80;99.90;;;;;;5005485;28;20149;-29
2022/11/29 06:30:21;;;;;;;15.70;8.57;;;5.80;99.90;;;;;;5003618;28;20490;-31
2022/11/29 06:33:16;;;;;;;11.10;7.57;;;5.80;99.90;;;;;;5007212;28;20042;-30
2022/11/29 06:35:50;;;;;;;10.68;7.50;;;5.70;99.90;;;;;;5006204;28;20053;-30
2022/11/29 06:38:27;;;;;;;10.45;7.93;;;5.70;99.90;;;;;;5005031;28;20434;-30
2022/11/29 06:40:54;;;;;;;10.88;7.78;;;5.70;99.90;;;;;;5005408;28;20037;-30
2022/11/29 06:43:21;;;;;;;11.40;7.60;;;5.70;99.90;;;;;;5004637;28;20073;-31
2022/11/29 06:45:59;;;;;;;13.30;8.45;;;5.70;99.90;;;;;;5022539;28;20055;-34
2022/11/29 06:48:27;;;;;;;11.40;7.50;;;5.70;99.90;;;;;;5007391;28;20033;-30
2022/11/29 06:51:06;;;;;;;10.27;7.82;;;5.70;99.90;;;;;;5007442;28;20061;-30
2022/11/29 06:53:58;;;;;;;12.05;8.43;;;5.70;99.90;;;;;;4991919;28;20281;-30
2022/11/29 06:56:38;;;;;;;13.32;8.15;;;5.80;99.90;;;;;;4988582;28;20450;-34
2022/11/29 06:59:14;;;;;;;12.82;8.23;;;5.80;99.90;;;;;;4988550;28;20062;-33
2022/11/29 07:01:50;;;;;;;10.50;7.82;;;5.80;99.90;;;;;;4988863;28;20471;-32
2022/11/29 07:04:44;;;;;;;13.05;8.68;;;5.80;99.90;;;;;;4990542;28;20034;-32
2022/11/29 07:07:17;;;;;;;12.18;8.65;;;5.90;99.90;;;;;;4987702;28;20054;-33
2022/11/29 07:09:48;;;;;;;11.82;7.95;;;6.00;99.90;;;;;;4987748;28;20096;-35
2022/11/29 07:12:14;;;;;;;11.05;7.45;;;6.00;99.90;;;;;;5018756;28;20036;-32
2022/11/29 07:14:40;;;;;;;12.05;8.07;;;6.00;99.90;;;;;;5005434;28;20032;-30
2022/11/29 07:17:08;;;;;;;11.00;8.02;;;6.00;99.90;;;;;;5005742;28;20030;-31
2022/11/29 07:19:50;;;;;;;10.00;6.60;;;6.00;99.90;;;;;;5005582;28;20034;-30
2022/11/29 07:22:34;;;;;;;12.27;7.50;;;6.00;99.90;;;;;;5004184;28;20430;-30
2022/11/29 07:25:02;;;;;;;11.05;8.02;;;6.00;99.90;;;;;;5007315;28;20383;-29
2022/11/29 07:27:44;;;;;;;12.77;8.82;;;6.00;99.90;;;;;;5003486;28;20084;-31
2022/11/29 07:30:17;;;;;;;10.88;7.82;;;6.00;99.90;;;;;;5007597;28;20073;-30
2022/11/29 07:33:12;;;;;;;14.57;8.13;;;6.00;99.90;;;;;;5004526;28;20373;-32
2022/11/29 07:35:44;;;;;;;11.40;7.70;;;5.90;99.90;;;;;;5006906;28;20080;-33
2022/11/29 07:38:48;;;;;;;11.85;8.32;;;5.90;99.90;;;;;;5004571;28;20026;-33
2022/11/29 07:41:24;;;;;;;14.05;8.73;;;5.90;99.90;;;;;;5004559;28;20438;-30
2022/11/29 07:44:20;;;;;;;12.20;8.88;;;5.90;99.90;;;;;;5004473;28;20101;-33
2022/11/29 07:46:46;;;;;;;15.38;8.63;;;5.90;99.90;;;;;;5020115;28;20646;-30
2022/11/29 07:49:12;;;;;;;14.77;9.77;;;5.90;99.90;;;;;;5005775;28;20172;-30
2022/11/29 07:51:37;;;;;;;15.52;9.70;;;6.00;99.90;;;;;;5008073;28;20499;-30
2022/11/29 07:54:04;;;;;;;15.27;9.63;;;6.00;99.90;;;;;;5009429;28;20026;-31
2022/11/29 07:56:29;;;;;;;14.25;9.55;;;5.90;99.90;;;;;;5010886;28;20077;-30
2022/11/29 07:58:55;;;;;;;16.70;9.98;;;5.90;99.90;;;;;;5008415;28;20475;-30
2022/11/29 08:01:20;;;;;;;18.30;11.23;;;5.90;99.90;;;;;;5009260;28;20503;-32
2022/11/29 08:03:46;;;;;;;19.80;11.00;;;6.00;99.90;;;;;;5018166;28;20117;-30
2022/11/29 08:06:11;;;;;;;19.65;11.50;;;6.00;99.90;;;;;;5008768;28;20054;-31
2022/11/29 08:08:37;;;;;;;22.55;12.38;;;6.00;99.90;;;;;;5010953;28;20128;-34
2022/11/29 08:11:11;;;;;;;17.25;11.60;;;6.00;99.90;;;;;;5009380;28;20038;-31
2022/11/29 08:13:37;;;;;;;18.10;11.23;;;6.00;99.90;;;;;;5010011;28;20048;-30
2022/11/29 08:16:02;;;;;;;22.33;12.57;;;6.00;99.90;;;;;;5009261;28;20018;-30
2022/11/29 08:18:28;;;;;;;22.40;13.82;;;6.00;99.90;;;;;;5008144;28;20029;-31
2022/11/29 08:20:53;;;;;;;23.33;12.20;;;6.00;99.90;;;;;;5008904;28;20039;-31
2022/11/29 08:23:19;;;;;;;21.58;12.48;;;6.10;99.90;;;;;;5008605;28;20029;-33
2022/11/29 08:25:45;;;;;;;20.25;12.68;;;6.10;99.90;;;;;;5010785;28;20029;-30
2022/11/29 08:28:10;;;;;;;24.05;12.00;;;6.10;99.90;;;;;;5008868;28;20488;-30
2022/11/29 08:30:36;;;;;;;19.73;12.93;;;6.10;99.90;;;;;;5009279;28;20041;-30
2022/11/29 08:33:02;;;;;;;23.02;13.35;;;6.10;99.90;;;;;;5008367;28;20403;-31
2022/11/29 08:35:28;;;;;;;25.30;14.40;;;6.20;99.90;;;;;;5005097;28;20045;-30
2022/11/29 08:37:54;;;;;;;22.55;12.73;;;6.20;99.90;;;;;;5011475;28;20121;-30
2022/11/29 08:40:19;;;;;;;25.42;12.65;;;6.10;99.90;;;;;;5009242;28;20546;-30
2022/11/29 08:42:45;;;;;;;23.45;12.20;;;6.20;99.90;;;;;;5009801;28;20105;-30
2022/11/29 08:45:11;;;;;;;24.60;12.30;;;6.20;99.90;;;;;;5009690;28;20053;-35
2022/11/29 08:47:37;;;;;;;23.38;12.20;;;6.20;99.90;;;;;;5010379;28;20030;-30
2022/11/29 08:50:11;;;;;;;20.83;11.95;;;6.20;99.90;;;;;;5011185;28;20108;-31
2022/11/29 08:55:25;;;;;;;20.67;12.13;;;6.20;99.90;;;;;;5006133;28;20119;-30
2022/11/29 08:57:51;;;;;;;22.75;12.38;;;6.20;99.90;;;;;;5011109;28;20175;-31
2022/11/29 09:00:20;;;;;;;22.00;12.90;;;6.20;99.90;;;;;;5009268;28;20560;-32
2022/11/29 09:02:46;;;;;;;25.45;13.38;;;6.20;99.90;;;;;;5007278;28;20030;-31
2022/11/29 09:05:11;;;;;;;22.33;12.55;;;6.20;99.90;;;;;;5008593;28;20054;-33
2022/11/29 09:07:37;;;;;;;25.13;12.77;;;6.20;99.90;;;;;;5006548;28;20025;-32
2022/11/29 09:10:07;;;;;;;26.25;13.80;;;6.20;99.90;;;;;;5009936;28;20030;-32
2022/11/29 09:12:33;;;;;;;28.52;17.23;;;6.30;99.90;;;;;;5008391;28;20184;-31
2022/11/29 09:14:59;;;;;;;24.20;12.00;;;6.30;99.90;;;;;;5009641;28;20025;-30
2022/11/29 09:17:25;;;;;;;25.75;12.93;;;6.30;99.90;;;;;;5011804;28;20490;-29
2022/11/29 09:19:50;;;;;;;26.08;13.07;;;6.30;99.90;;;;;;5008433;28;20037;-31
2022/11/29 09:22:16;;;;;;;24.98;12.23;;;6.30;99.90;;;;;;5010370;28;20475;-33
2022/11/29 09:24:41;;;;;;;26.92;13.93;;;6.30;99.90;;;;;;5008664;28;20039;-30
2022/11/29 09:27:07;;;;;;;24.40;13.38;;;6.40;99.90;;;;;;5008681;28;20030;-30
2022/11/29 09:29:32;;;;;;;20.80;11.38;;;6.40;99.90;;;;;;5009623;28;20395;-33
2022/11/29 09:31:58;;;;;;;26.48;12.75;;;6.40;99.90;;;;;;5024528;28;20030;-30
2022/11/29 09:34:24;;;;;;;25.20;13.18;;;6.30;99.90;;;;;;5010717;28;20438;-30
2022/11/29 09:36:49;;;;;;;24.95;12.82;;;6.40;99.90;;;;;;5005922;28;20026;-33
2022/11/29 09:39:15;;;;;;;23.33;12.48;;;6.40;99.90;;;;;;5010748;28;20026;-30
2022/11/29 09:42:05;;;;;;;23.10;12.15;;;6.40;99.90;;;;;;5009519;28;20121;-30
2022/11/29 09:44:39;;;;;;;21.70;10.82;;;6.40;99.90;;;;;;5010552;28;20151;-29
2022/11/29 09:47:26;;;;;;;21.08;10.43;;;6.40;99.90;;;;;;5008492;28;20032;-30
2022/11/29 09:50:00;;;;;;;20.38;11.52;;;6.40;99.90;;;;;;5004775;28;20436;-31
2022/11/29 09:52:55;;;;;;;18.27;10.13;;;6.40;99.90;;;;;;5009689;28;20455;-31
2022/11/29 09:55:35;;;;;;;18.88;10.88;;;6.40;99.90;;;;;;4989845;28;20107;-30
2022/11/29 09:58:04;;;;;;;19.42;10.35;;;6.50;99.90;;;;;;5005046;28;20905;-30
2022/11/29 10:00:34;;;;;;;18.58;10.95;;;6.50;99.90;;;;;;5005859;28;20491;-29
2022/11/29 10:03:28;;;;;;;20.48;10.48;;;6.50;99.90;;;;;;5008910;28;20036;-31
2022/11/29 10:06:01;;;;;;;20.77;10.80;;;6.50;99.90;;;;;;5003637;28;20372;-32
2022/11/29 10:08:37;;;;;;;15.00;9.35;;;6.50;99.90;;;;;;5007776;28;20079;-31
2022/11/29 10:11:18;;;;;;;16.20;9.63;;;6.60;99.90;;;;;;5006065;28;20026;-31
2022/11/29 10:13:52;;;;;;;16.35;8.65;;;6.60;99.90;;;;;;5003203;28;20076;-30
2022/11/29 10:16:27;;;;;;;20.48;10.18;;;6.60;99.90;;;;;;5008208;28;20033;-30
2022/11/29 10:19:03;;;;;;;17.02;9.25;;;6.60;99.90;;;;;;5007773;28;20124;-34
2022/11/29 10:21:34;;;;;;;19.60;9.32;;;6.60;99.90;;;;;;5005655;28;20037;-31
2022/11/29 10:24:13;;;;;;;16.02;8.38;;;6.60;99.90;;;;;;5004810;28;20495;-29
2022/11/29 10:26:39;;;;;;;17.60;9.80;;;6.60;99.90;;;;;;5005086;28;20089;-32
2022/11/29 10:29:05;;;;;;;17.90;9.63;;;6.60;99.90;;;;;;5006306;28;20281;-34
2022/11/29 10:31:41;;;;;;;17.63;8.63;;;6.60;99.90;;;;;;5008202;28;20495;-30
2022/11/29 10:34:13;;;;;;;15.13;9.13;;;6.60;99.90;;;;;;5008322;28;20431;-31
2022/11/29 10:36:49;;;;;;;15.45;8.70;;;6.60;99.90;;;;;;5006029;28;20034;-30
2022/11/29 10:39:45;;;;;;;16.70;9.05;;;6.60;99.90;;;;;;5007147;28;20030;-30
2022/11/29 10:45:08;;;;;;;16.40;8.85;;;6.70;99.90;;;;;;5001469;28;20041;-34
2022/11/29 10:47:34;;;;;;;17.25;9.70;;;6.70;99.90;;;;;;5004552;28;20080;-31
2022/11/29 10:50:01;;;;;;;14.80;8.43;;;6.70;99.90;;;;;;5002603;28;20435;-31
2022/11/29 10:52:26;;;;;;;15.70;8.70;;;6.70;99.90;;;;;;4997930;28;20037;-32
2022/11/29 10:54:55;;;;;;;14.55;8.77;;;6.70;99.90;;;;;;5019102;28;20053;-32
2022/11/29 10:57:21;;;;;;;16.98;8.98;;;6.70;99.90;;;;;;5001009;28;20439;-33
2022/11/29 11:00:03;;;;;;;14.45;7.65;;;6.70;99.90;;;;;;4991613;28;20152;-31
2022/11/29 11:02:30;;;;;;;14.82;8.40;;;6.70;99.90;;;;;;4987264;28;20083;-33
2022/11/29 11:04:57;;;;;;;15.23;8.07;;;6.70;99.90;;;;;;4986569;28;20041;-34
2022/11/29 11:07:27;;;;;;;14.38;8.73;;;6.70;99.90;;;;;;4995657;28;20042;-31
2022/11/29 11:09:56;;;;;;;17.90;9.07;;;6.70;99.90;;;;;;5005103;28;20548;-30
2022/11/29 11:12:26;;;;;;;15.63;7.75;;;6.70;99.90;;;;;;5005141;28;20030;-30
2022/11/29 11:15:11;;;;;;;14.07;7.95;;;6.70;99.90;;;;;;5002751;28;20037;-31
2022/11/29 11:17:38;;;;;;;13.82;8.20;;;6.70;99.90;;;;;;5000887;28;20478;-32
2022/11/29 11:20:18;;;;;;;15.85;8.07;;;6.80;99.90;;;;;;5004101;28;20084;-30
2022/11/29 11:23:02;;;;;;;12.63;7.72;;;6.80;99.90;;;;;;5009583;28;20057;-33
2022/11/29 11:25:37;;;;;;;16.60;8.85;;;6.90;99.90;;;;;;5004109;28;20037;-31
2022/11/29 11:28:19;;;;;;;15.48;8.80;;;6.80;99.90;;;;;;5004792;28;20107;-30
2022/11/29 11:31:01;;;;;;;13.50;7.47;;;6.90;99.90;;;;;;5002506;28;20041;-31
2022/11/29 11:33:30;;;;;;;13.13;7.65;;;6.90;99.90;;;;;;5005588;28;20029;-30
2022/11/29 11:36:06;;;;;;;18.55;8.88;;;6.90;99.90;;;;;;5006133;28;20133;-30
2022/11/29 11:38:46;;;;;;;14.75;7.97;;;6.90;99.90;;;;;;5019418;28;20318;-36
2022/11/29 11:41:17;;;;;;;13.50;7.60;;;6.90;99.90;;;;;;5000152;28;20030;-30
2022/11/29 11:43:57;;;;;;;12.75;7.15;;;7.00;99.90;;;;;;5005138;28;20136;-30
2022/11/29 11:46:43;;;;;;;13.05;7.55;;;6.90;99.90;;;;;;5001989;28;20073;-32
2022/11/29 11:49:19;;;;;;;13.98;8.25;;;6.90;99.90;;;;;;5004077;28;20057;-30
2022/11/29 11:51:45;;;;;;;12.13;6.63;;;6.90;99.90;;;;;;4999757;28;20115;-30
2022/11/29 11:54:14;;;;;;;11.38;7.22;;;6.90;99.90;;;;;;5004578;28;20434;-33
2022/11/29 11:56:40;;;;;;;13.35;7.82;;;6.90;99.90;;;;;;5003755;28;20034;-30
2022/11/29 11:59:18;;;;;;;14.23;8.60;;;6.90;99.90;;;;;;5004954;28;20029;-30
2022/11/29 12:01:43;;;;;;;15.27;8.13;;;6.90;99.90;;;;;;5002756;28;20136;-31
2022/11/29 12:04:29;;;;;;;13.35;7.65;;;6.90;99.90;;;;;;5004878;28;20041;-31
2022/11/29 12:06:59;;;;;;;12.50;7.70;;;6.90;99.90;;;;;;5002805;28;20050;-30
2022/11/29 12:09:33;;;;;;;11.27;7.10;;;6.90;99.90;;;;;;5002619;28;20034;-31
2022/11/29 12:12:09;;;;;;;12.52;8.02;;;7.00;99.90;;;;;;5003478;28;20018;-34
2022/11/29 12:14:45;;;;;;;14.68;8.35;;;7.00;99.90;;;;;;5009454;28;20026;-29
2022/11/29 12:17:14;;;;;;;12.60;7.75;;;7.00;99.90;;;;;;5003312;28;20131;-33
2022/11/29 12:19:50;;;;;;;11.75;7.72;;;7.00;99.90;;;;;;5006450;28;20034;-32
2022/11/29 12:22:23;;;;;;;11.60;7.35;;;7.00;99.90;;;;;;5002905;28;20034;-33
2022/11/29 12:25:00;;;;;;;11.95;8.10;;;6.90;99.90;;;;;;5002324;28;20037;-34
2022/11/29 12:27:26;;;;;;;11.52;6.47;;;6.90;99.90;;;;;;5002382;28;20462;-30
2022/11/29 12:29:52;;;;;;;12.30;7.57;;;7.00;99.90;;;;;;5006545;28;20034;-30
2022/11/29 12:32:29;;;;;;;11.57;7.28;;;7.00;99.90;;;;;;5006301;28;20034;-32
2022/11/29 12:35:07;;;;;;;11.27;6.97;;;6.90;99.90;;;;;;5019978;28;20077;-30
2022/11/29 12:37:42;;;;;;;12.23;6.88;;;6.90;99.90;;;;;;5008148;28;20367;-30
2022/11/29 12:40:34;;;;;;;12.43;7.38;;;6.80;99.90;;;;;;5010481;28;20076;-32
2022/11/29 12:43:23;;;;;;;14.20;8.10;;;6.80;99.90;;;;;;5004468;28;20022;-34
2022/11/29 12:46:13;;;;;;;11.98;6.97;;;6.80;99.90;;;;;;5009689;28;20026;-30
2022/11/29 12:48:57;;;;;;;12.15;6.75;;;6.80;99.90;;;;;;5009260;28;20526;-30
2022/11/29 12:51:23;;;;;;;13.68;8.15;;;6.80;99.90;;;;;;5007754;28;20030;-31
2022/11/29 12:54:13;;;;;;;12.73;7.97;;;6.80;99.90;;;;;;5009414;28;20438;-30
2022/11/29 12:57:16;;;;;;;15.60;8.50;;;6.80;99.90;;;;;;5011092;28;20040;-30
2022/11/29 13:00:05;;;;;;;15.70;8.98;;;6.80;99.90;;;;;;5009938;28;20625;-32
2022/11/29 13:02:53;;;;;;;16.08;8.95;;;6.80;99.90;;;;;;5006665;28;20041;-30
2022/11/29 13:05:37;;;;;;;19.50;10.15;;;6.80;99.90;;;;;;5005290;28;20076;-33
2022/11/29 13:08:08;;;;;;;17.05;9.57;;;6.80;99.90;;;;;;5010126;28;20539;-29
2022/11/29 13:10:58;;;;;;;19.67;11.00;;;6.80;99.90;;;;;;5008571;28;20104;-30
2022/11/29 13:13:41;;;;;;;17.98;9.73;;;6.90;99.90;;;;;;5006424;28;20479;-33
2022/11/29 13:16:29;;;;;;;18.35;10.63;;;6.90;99.90;;;;;;5004995;28;20112;-30
2022/11/29 13:19:14;;;;;;;19.20;11.32;;;6.80;99.90;;;;;;5009941;28;20065;-31
2022/11/29 13:21:51;;;;;;;16.05;9.93;;;6.90;99.90;;;;;;5009438;28;20399;-29
2022/11/29 13:24:27;;;;;;;19.43;10.80;;;6.90;99.90;;;;;;5007834;28;20030;-30
2022/11/29 13:26:54;;;;;;;22.15;12.02;;;6.90;99.90;;;;;;5009674;28;20314;-30
2022/11/29 13:29:20;;;;;;;17.63;9.13;;;6.90;99.90;;;;;;5007518;28;20033;-30
2022/11/29 13:31:47;;;;;;;16.60;10.32;;;6.90;99.90;;;;;;5006270;28;20686;-29
2022/11/29 13:34:24;;;;;;;17.10;10.55;;;6.90;99.90;;;;;;5007191;28;20034;-31
2022/11/29 13:36:56;;;;;;;19.42;11.65;;;6.90;99.90;;;;;;5009603;28;20075;-31